sensor_id;sensor_type;location;lat;lon;timestamp;pressure;altitude;pressure_sealevel;temperature;humidity
7309;BME280;3695;53.330;9.876;2024-02-26T00:01:57;99399.91;;;11.00;54.85
7309;BME280;3695;53.330;9.876;2024-02-26T00:04:24;99394.66;;;10.97;54.74
7309;BME280;3695;53.330;9.876;2024-02-26T00:06:50;99398.13;;;11.10;54.29
7309;BME280;3695;53.330;9.876;2024-02-26T00:09:19;99397.28;;;11.05;53.95
7309;BME280;3695;53.330;9.876;2024-02-26T00:11:45;99396.34;;;10.46;54.61
7309;BME280;3695;53.330;9.876;2024-02-26T00:14:12;99403.31;;;10.38;54.83
7309;BME280;3695;53.330;9.876;2024-02-26T00:16:39;99398.00;;;10.17;54.98
7309;BME280;3695;53.330;9.876;2024-02-26T00:19:07;99400.66;;;10.23;55.47
7309;BME280;3695;53.330;9.876;2024-02-26T00:21:34;99399.63;;;9.92;54.94
7309;BME280;3695;53.330;9.876;2024-02-26T00:24:00;99392.53;;;9.73;55.89
7309;BME280;3695;53.330;9.876;2024-02-26T00:26:27;99395.22;;;9.87;55.78
7309;BME280;3695;53.330;9.876;2024-02-26T00:28:54;99397.19;;;10.36;55.97
7309;BME280;3695;53.330;9.876;2024-02-26T00:31:20;99393.56;;;10.10;55.55
7309;BME280;3695;53.330;9.876;2024-02-26T00:33:47;99397.78;;;9.73;55.36
7309;BME280;3695;53.330;9.876;2024-02-26T00:36:14;99390.88;;;9.93;55.83
7309;BME280;3695;53.330;9.876;2024-02-26T00:38:41;99388.34;;;10.16;54.93
7309;BME280;3695;53.330;9.876;2024-02-26T00:41:08;99391.75;;;9.97;55.12
7309;BME280;3695;53.330;9.876;2024-02-26T00:43:34;99386.25;;;9.45;55.21
7309;BME280;3695;53.330;9.876;2024-02-26T00:46:03;99384.63;;;9.67;55.33
7309;BME280;3695;53.330;9.876;2024-02-26T00:48:30;99391.88;;;10.18;55.58
7309;BME280;3695;53.330;9.876;2024-02-26T00:50:56;99395.22;;;9.87;55.04
7309;BME280;3695;53.330;9.876;2024-02-26T00:53:24;99401.00;;;9.26;55.23
7309;BME280;3695;53.330;9.876;2024-02-26T00:55:51;99402.75;;;9.30;55.50
7309;BME280;3695;53.330;9.876;2024-02-26T00:58:17;99397.91;;;9.99;55.75
7309;BME280;3695;53.330;9.876;2024-02-26T01:00:44;99403.19;;;10.14;55.06
7309;BME280;3695;53.330;9.876;2024-02-26T01:03:10;99396.03;;;9.76;54.73
7309;BME280;3695;53.330;9.876;2024-02-26T01:05:37;99403.00;;;9.68;55.34
7309;BME280;3695;53.330;9.876;2024-02-26T01:08:04;99405.69;;;9.80;54.81
7309;BME280;3695;53.330;9.876;2024-02-26T01:10:32;99403.94;;;9.82;54.87
7309;BME280;3695;53.330;9.876;2024-02-26T01:12:59;99402.94;;;9.59;55.07
7309;BME280;3695;53.330;9.876;2024-02-26T01:15:26;99397.66;;;9.50;55.64
7309;BME280;3695;53.330;9.876;2024-02-26T01:17:52;99396.28;;;8.87;55.19
7309;BME280;3695;53.330;9.876;2024-02-26T01:20:19;99404.31;;;9.06;55.90
7309;BME280;3695;53.330;9.876;2024-02-26T01:22:46;99406.03;;;9.01;56.29
7309;BME280;3695;53.330;9.876;2024-02-26T01:25:14;99400.81;;;9.05;56.50
7309;BME280;3695;53.330;9.876;2024-02-26T01:27:42;99394.63;;;8.98;56.21
7309;BME280;3695;53.330;9.876;2024-02-26T01:30:10;99382.47;;;9.04;56.58
7309;BME280;3695;53.330;9.876;2024-02-26T01:32:37;99386.97;;;9.20;56.24
7309;BME280;3695;53.330;9.876;2024-02-26T01:35:04;99394.03;;;9.33;56.49
7309;BME280;3695;53.330;9.876;2024-02-26T01:37:32;99396.69;;;9.40;56.24
7309;BME280;3695;53.330;9.876;2024-02-26T01:39:59;99391.69;;;9.78;56.25
7309;BME280;3695;53.330;9.876;2024-02-26T01:42:29;99386.91;;;9.17;55.64
7309;BME280;3695;53.330;9.876;2024-02-26T01:44:57;99389.91;;;9.73;55.44
7309;BME280;3695;53.330;9.876;2024-02-26T01:47:24;99396.06;;;9.82;55.49
7309;BME280;3695;53.330;9.876;2024-02-26T01:49:52;99389.78;;;9.53;54.32
7309;BME280;3695;53.330;9.876;2024-02-26T01:52:19;99401.94;;;9.42;55.41
7309;BME280;3695;53.330;9.876;2024-02-26T01:54:46;99400.00;;;9.14;55.40
7309;BME280;3695;53.330;9.876;2024-02-26T01:57:13;99395.03;;;9.50;55.32
7309;BME280;3695;53.330;9.876;2024-02-26T01:59:41;99397.03;;;10.00;55.17
7309;BME280;3695;53.330;9.876;2024-02-26T02:02:10;99399.56;;;9.85;55.19
7309;BME280;3695;53.330;9.876;2024-02-26T02:04:37;99402.84;;;9.43;55.35
7309;BME280;3695;53.330;9.876;2024-02-26T02:07:04;99395.88;;;9.49;55.59
7309;BME280;3695;53.330;9.876;2024-02-26T02:09:31;99396.16;;;10.07;55.54
7309;BME280;3695;53.330;9.876;2024-02-26T02:11:58;99390.88;;;10.01;55.01
7309;BME280;3695;53.330;9.876;2024-02-26T02:14:25;99394.03;;;9.34;55.37
7309;BME280;3695;53.330;9.876;2024-02-26T02:16:51;99389.75;;;9.46;56.00
7309;BME280;3695;53.330;9.876;2024-02-26T02:19:19;99404.66;;;9.54;56.27
7309;BME280;3695;53.330;9.876;2024-02-26T02:21:47;99403.09;;;9.82;55.52
7309;BME280;3695;53.330;9.876;2024-02-26T02:24:14;99405.81;;;10.05;55.49
7309;BME280;3695;53.330;9.876;2024-02-26T02:26:40;99411.69;;;9.57;55.40
7309;BME280;3695;53.330;9.876;2024-02-26T02:29:07;99405.59;;;9.62;55.31
7309;BME280;3695;53.330;9.876;2024-02-26T02:31:34;99409.81;;;9.40;55.26
7309;BME280;3695;53.330;9.876;2024-02-26T02:34:01;99411.59;;;9.43;55.31
7309;BME280;3695;53.330;9.876;2024-02-26T02:36:28;99408.44;;;10.14;54.54
7309;BME280;3695;53.330;9.876;2024-02-26T02:38:56;99411.81;;;9.79;54.61
7309;BME280;3695;53.330;9.876;2024-02-26T02:41:22;99401.38;;;9.92;55.08
7309;BME280;3695;53.330;9.876;2024-02-26T02:43:49;99413.66;;;9.99;54.67
7309;BME280;3695;53.330;9.876;2024-02-26T02:46:15;99406.69;;;10.08;54.44
7309;BME280;3695;53.330;9.876;2024-02-26T02:48:42;99408.34;;;9.90;54.82
7309;BME280;3695;53.330;9.876;2024-02-26T02:51:09;99409.31;;;10.10;54.84
7309;BME280;3695;53.330;9.876;2024-02-26T02:53:35;99417.19;;;10.10;54.22
7309;BME280;3695;53.330;9.876;2024-02-26T02:56:04;99422.22;;;9.64;54.57
7309;BME280;3695;53.330;9.876;2024-02-26T02:58:30;99423.78;;;9.36;54.55
7309;BME280;3695;53.330;9.876;2024-02-26T03:00:57;99419.69;;;8.69;54.63
7309;BME280;3695;53.330;9.876;2024-02-26T03:03:25;99416.28;;;8.76;55.03
7309;BME280;3695;53.330;9.876;2024-02-26T03:05:53;99408.91;;;9.34;54.94
7309;BME280;3695;53.330;9.876;2024-02-26T03:08:20;99406.56;;;9.79;54.19
7309;BME280;3695;53.330;9.876;2024-02-26T03:10:47;99423.16;;;9.78;54.19
7309;BME280;3695;53.330;9.876;2024-02-26T03:13:14;99423.22;;;9.86;54.58
7309;BME280;3695;53.330;9.876;2024-02-26T03:15:41;99424.88;;;9.76;54.33
7309;BME280;3695;53.330;9.876;2024-02-26T03:18:08;99431.03;;;9.75;54.03
7309;BME280;3695;53.330;9.876;2024-02-26T03:20:34;99424.84;;;9.67;54.19
7309;BME280;3695;53.330;9.876;2024-02-26T03:23:02;99422.84;;;9.30;54.92
7309;BME280;3695;53.330;9.876;2024-02-26T03:25:28;99416.63;;;9.14;54.70
7309;BME280;3695;53.330;9.876;2024-02-26T03:27:55;99425.69;;;9.65;54.44
7309;BME280;3695;53.330;9.876;2024-02-26T03:30:23;99420.63;;;9.97;54.07
7309;BME280;3695;53.330;9.876;2024-02-26T03:32:49;99433.78;;;10.04;54.04
7309;BME280;3695;53.330;9.876;2024-02-26T03:35:16;99438.63;;;9.36;53.62
7309;BME280;3695;53.330;9.876;2024-02-26T03:37:42;99443.91;;;9.42;54.74
7309;BME280;3695;53.330;9.876;2024-02-26T03:40:10;99442.78;;;9.10;54.28
7309;BME280;3695;53.330;9.876;2024-02-26T03:42:38;99443.31;;;8.75;55.18
7309;BME280;3695;53.330;9.876;2024-02-26T03:45:04;99448.69;;;8.84;54.85
7309;BME280;3695;53.330;9.876;2024-02-26T03:47:32;99448.06;;;9.13;55.47
7309;BME280;3695;53.330;9.876;2024-02-26T03:49:59;99449.09;;;9.33;55.73
7309;BME280;3695;53.330;9.876;2024-02-26T03:52:25;99456.09;;;9.34;54.25
7309;BME280;3695;53.330;9.876;2024-02-26T03:54:52;99464.19;;;8.66;55.09
7309;BME280;3695;53.330;9.876;2024-02-26T03:57:18;99465.09;;;8.70;55.62
7309;BME280;3695;53.330;9.876;2024-02-26T03:59:45;99475.16;;;9.18;55.01
7309;BME280;3695;53.330;9.876;2024-02-26T04:02:11;99469.56;;;8.78;54.59
7309;BME280;3695;53.330;9.876;2024-02-26T04:04:39;99485.19;;;8.68;55.53
7309;BME280;3695;53.330;9.876;2024-02-26T04:07:05;99482.22;;;9.25;54.89
7309;BME280;3695;53.330;9.876;2024-02-26T04:09:32;99494.44;;;9.23;54.81
7309;BME280;3695;53.330;9.876;2024-02-26T04:11:59;99500.66;;;9.34;54.40
7309;BME280;3695;53.330;9.876;2024-02-26T04:14:25;99499.50;;;9.02;53.89
7309;BME280;3695;53.330;9.876;2024-02-26T04:16:52;99494.41;;;8.38;54.46
7309;BME280;3695;53.330;9.876;2024-02-26T04:19:20;99496.00;;;8.29;54.45
7309;BME280;3695;53.330;9.876;2024-02-26T04:21:47;99504.94;;;8.41;54.78
7309;BME280;3695;53.330;9.876;2024-02-26T04:24:14;99498.88;;;8.45;55.14
7309;BME280;3695;53.330;9.876;2024-02-26T04:26:41;99500.66;;;8.48;55.76
7309;BME280;3695;53.330;9.876;2024-02-26T04:29:07;99496.78;;;8.94;55.40
7309;BME280;3695;53.330;9.876;2024-02-26T04:31:34;99510.09;;;9.14;54.68
7309;BME280;3695;53.330;9.876;2024-02-26T04:34:00;99500.28;;;8.94;54.91
7309;BME280;3695;53.330;9.876;2024-02-26T04:36:27;99510.47;;;8.69;55.29
7309;BME280;3695;53.330;9.876;2024-02-26T04:38:55;99510.69;;;8.85;55.21
7309;BME280;3695;53.330;9.876;2024-02-26T04:41:21;99520.97;;;8.70;54.98
7309;BME280;3695;53.330;9.876;2024-02-26T04:43:48;99518.34;;;8.67;55.45
7309;BME280;3695;53.330;9.876;2024-02-26T04:46:14;99521.72;;;8.58;55.51
7309;BME280;3695;53.330;9.876;2024-02-26T04:48:41;99515.28;;;9.09;55.40
7309;BME280;3695;53.330;9.876;2024-02-26T04:51:08;99522.97;;;8.91;54.71
7309;BME280;3695;53.330;9.876;2024-02-26T04:53:34;99525.56;;;8.89;55.63
7309;BME280;3695;53.330;9.876;2024-02-26T04:56:02;99523.22;;;9.18;55.05
7309;BME280;3695;53.330;9.876;2024-02-26T04:58:29;99523.94;;;9.01;55.50
7309;BME280;3695;53.330;9.876;2024-02-26T05:00:55;99526.63;;;9.08;55.16
7309;BME280;3695;53.330;9.876;2024-02-26T05:03:22;99523.72;;;8.81;55.03
7309;BME280;3695;53.330;9.876;2024-02-26T05:05:49;99528.63;;;8.52;55.97
7309;BME280;3695;53.330;9.876;2024-02-26T05:08:15;99531.69;;;8.90;56.22
7309;BME280;3695;53.330;9.876;2024-02-26T05:10:42;99527.34;;;8.92;56.07
7309;BME280;3695;53.330;9.876;2024-02-26T05:13:10;99537.25;;;9.22;56.04
7309;BME280;3695;53.330;9.876;2024-02-26T05:15:36;99541.53;;;9.14;55.71
7309;BME280;3695;53.330;9.876;2024-02-26T05:18:03;99552.44;;;9.58;55.50
7309;BME280;3695;53.330;9.876;2024-02-26T05:20:30;99545.13;;;9.25;54.98
7309;BME280;3695;53.330;9.876;2024-02-26T05:23:00;99544.97;;;9.08;54.86
7309;BME280;3695;53.330;9.876;2024-02-26T05:25:26;99541.34;;;8.95;55.74
7309;BME280;3695;53.330;9.876;2024-02-26T05:27:53;99550.25;;;9.13;56.22
7309;BME280;3695;53.330;9.876;2024-02-26T05:30:23;99547.91;;;9.38;55.67
7309;BME280;3695;53.330;9.876;2024-02-26T05:32:49;99546.94;;;9.30;55.70
7309;BME280;3695;53.330;9.876;2024-02-26T05:35:16;99555.66;;;9.28;55.05
7309;BME280;3695;53.330;9.876;2024-02-26T05:37:42;99547.69;;;9.19;54.81
7309;BME280;3695;53.330;9.876;2024-02-26T05:40:10;99554.22;;;8.76;56.64
7309;BME280;3695;53.330;9.876;2024-02-26T05:42:38;99562.09;;;8.77;56.13
7309;BME280;3695;53.330;9.876;2024-02-26T05:45:06;99566.09;;;9.22;56.11
7309;BME280;3695;53.330;9.876;2024-02-26T05:47:34;99570.34;;;9.12;56.13
7309;BME280;3695;53.330;9.876;2024-02-26T05:50:01;99564.13;;;9.03;55.76
7309;BME280;3695;53.330;9.876;2024-02-26T05:52:27;99565.88;;;9.02;56.09
7309;BME280;3695;53.330;9.876;2024-02-26T05:54:54;99568.75;;;9.26;56.22
7309;BME280;3695;53.330;9.876;2024-02-26T05:57:21;99568.66;;;9.16;56.38
7309;BME280;3695;53.330;9.876;2024-02-26T05:59:47;99566.38;;;9.52;55.90
7309;BME280;3695;53.330;9.876;2024-02-26T06:02:14;99574.41;;;9.70;55.11
7309;BME280;3695;53.330;9.876;2024-02-26T06:04:42;99577.78;;;9.60;55.74
7309;BME280;3695;53.330;9.876;2024-02-26T06:07:08;99577.94;;;9.77;55.01
7309;BME280;3695;53.330;9.876;2024-02-26T06:09:35;99580.31;;;9.48;55.48
7309;BME280;3695;53.330;9.876;2024-02-26T06:12:01;99580.31;;;9.48;55.49
7309;BME280;3695;53.330;9.876;2024-02-26T06:14:28;99595.09;;;9.42;55.81
7309;BME280;3695;53.330;9.876;2024-02-26T06:16:54;99596.22;;;9.68;54.96
7309;BME280;3695;53.330;9.876;2024-02-26T06:19:21;99599.09;;;9.97;54.96
7309;BME280;3695;53.330;9.876;2024-02-26T06:21:48;99593.34;;;9.40;55.62
7309;BME280;3695;53.330;9.876;2024-02-26T06:24:16;99591.59;;;9.39;56.16
7309;BME280;3695;53.330;9.876;2024-02-26T06:26:42;99594.09;;;9.26;55.90
7309;BME280;3695;53.330;9.876;2024-02-26T06:29:09;99602.06;;;9.38;55.83
7309;BME280;3695;53.330;9.876;2024-02-26T06:31:35;99599.34;;;9.27;56.16
7309;BME280;3695;53.330;9.876;2024-02-26T06:34:02;99599.75;;;9.71;55.63
7309;BME280;3695;53.330;9.876;2024-02-26T06:36:29;99605.19;;;9.93;55.61
7309;BME280;3695;53.330;9.876;2024-02-26T06:38:58;99598.66;;;9.45;54.90
7309;BME280;3695;53.330;9.876;2024-02-26T06:41:24;99602.94;;;9.37;55.92
7309;BME280;3695;53.330;9.876;2024-02-26T06:43:53;99602.41;;;9.74;56.01
7309;BME280;3695;53.330;9.876;2024-02-26T06:46:19;99610.47;;;10.02;55.69
7309;BME280;3695;53.330;9.876;2024-02-26T06:48:47;99602.34;;;9.67;55.08
7309;BME280;3695;53.330;9.876;2024-02-26T06:51:14;99611.13;;;9.72;55.82
7309;BME280;3695;53.330;9.876;2024-02-26T06:53:40;99616.41;;;9.76;55.37
7309;BME280;3695;53.330;9.876;2024-02-26T06:56:08;99622.06;;;9.28;56.03
7309;BME280;3695;53.330;9.876;2024-02-26T06:58:35;99615.38;;;9.58;55.68
7309;BME280;3695;53.330;9.876;2024-02-26T07:01:01;99624.31;;;9.79;55.80
7309;BME280;3695;53.330;9.876;2024-02-26T07:03:28;99627.81;;;9.80;55.88
7309;BME280;3695;53.330;9.876;2024-02-26T07:05:55;99639.31;;;9.97;55.69
7309;BME280;3695;53.330;9.876;2024-02-26T07:08:22;99625.97;;;9.68;55.33
7309;BME280;3695;53.330;9.876;2024-02-26T07:10:48;99637.44;;;9.81;56.08
7309;BME280;3695;53.330;9.876;2024-02-26T07:13:16;99642.84;;;9.99;55.65
7309;BME280;3695;53.330;9.876;2024-02-26T07:15:43;99648.06;;;9.96;55.52
7309;BME280;3695;53.330;9.876;2024-02-26T07:18:09;99645.50;;;10.04;55.84
7309;BME280;3695;53.330;9.876;2024-02-26T07:20:36;99648.31;;;10.25;55.38
7309;BME280;3695;53.330;9.876;2024-02-26T07:23:03;99657.25;;;10.48;54.65
7309;BME280;3695;53.330;9.876;2024-02-26T07:25:30;99656.91;;;10.09;55.11
7309;BME280;3695;53.330;9.876;2024-02-26T07:27:56;99661.50;;;10.31;54.89
7309;BME280;3695;53.330;9.876;2024-02-26T07:30:24;99665.78;;;10.20;55.51
7309;BME280;3695;53.330;9.876;2024-02-26T07:32:51;99665.72;;;10.12;55.06
7309;BME280;3695;53.330;9.876;2024-02-26T07:35:18;99667.66;;;10.35;55.18
7309;BME280;3695;53.330;9.876;2024-02-26T07:37:47;99664.84;;;10.15;55.67
7309;BME280;3695;53.330;9.876;2024-02-26T07:40:14;99674.47;;;10.14;54.96
7309;BME280;3695;53.330;9.876;2024-02-26T07:42:41;99668.63;;;10.47;55.33
7309;BME280;3695;53.330;9.876;2024-02-26T07:45:08;99669.50;;;10.49;54.61
7309;BME280;3695;53.330;9.876;2024-02-26T07:47:36;99673.06;;;10.57;54.55
7309;BME280;3695;53.330;9.876;2024-02-26T07:50:07;99680.78;;;10.33;54.97
7309;BME280;3695;53.330;9.876;2024-02-26T07:52:33;99681.59;;;10.23;54.93
7309;BME280;3695;53.330;9.876;2024-02-26T07:55:00;99680.69;;;10.21;54.72
7309;BME280;3695;53.330;9.876;2024-02-26T07:57:26;99692.19;;;10.37;55.11
7309;BME280;3695;53.330;9.876;2024-02-26T07:59:53;99690.63;;;10.68;54.85
7309;BME280;3695;53.330;9.876;2024-02-26T08:02:20;99697.38;;;10.29;54.86
7309;BME280;3695;53.330;9.876;2024-02-26T08:04:49;99696.06;;;9.82;55.66
7309;BME280;3695;53.330;9.876;2024-02-26T08:07:15;99708.75;;;10.28;55.35
7309;BME280;3695;53.330;9.876;2024-02-26T08:09:42;99707.13;;;10.42;55.40
7309;BME280;3695;53.330;9.876;2024-02-26T08:12:08;99712.31;;;10.36;55.48
7309;BME280;3695;53.330;9.876;2024-02-26T08:14:35;99714.28;;;10.68;55.34
7309;BME280;3695;53.330;9.876;2024-02-26T08:17:01;99713.31;;;10.55;55.04
7309;BME280;3695;53.330;9.876;2024-02-26T08:19:28;99716.72;;;10.43;55.30
7309;BME280;3695;53.330;9.876;2024-02-26T08:21:56;99707.84;;;10.25;55.38
7309;BME280;3695;53.330;9.876;2024-02-26T08:24:23;99708.56;;;10.13;55.71
7309;BME280;3695;53.330;9.876;2024-02-26T08:26:49;99716.06;;;10.75;55.23
7309;BME280;3695;53.330;9.876;2024-02-26T08:29:16;99720.25;;;10.45;55.62
7309;BME280;3695;53.330;9.876;2024-02-26T08:31:42;99717.81;;;10.71;55.71
7309;BME280;3695;53.330;9.876;2024-02-26T08:34:09;99717.72;;;10.57;55.49
7309;BME280;3695;53.330;9.876;2024-02-26T08:36:36;99719.44;;;10.55;55.79
7309;BME280;3695;53.330;9.876;2024-02-26T08:39:04;99722.09;;;10.54;55.98
7309;BME280;3695;53.330;9.876;2024-02-26T08:41:30;99718.75;;;10.82;55.61
7309;BME280;3695;53.330;9.876;2024-02-26T08:43:57;99726.91;;;11.34;55.26
7309;BME280;3695;53.330;9.876;2024-02-26T08:46:24;99732.19;;;11.32;55.20
7309;BME280;3695;53.330;9.876;2024-02-26T08:48:50;99733.06;;;11.40;55.33
7309;BME280;3695;53.330;9.876;2024-02-26T08:51:17;99733.00;;;11.28;54.75
7309;BME280;3695;53.330;9.876;2024-02-26T08:53:44;99738.38;;;11.54;54.72
7309;BME280;3695;53.330;9.876;2024-02-26T08:56:12;99734.00;;;11.58;54.28
7309;BME280;3695;53.330;9.876;2024-02-26T08:58:42;99735.75;;;11.50;54.12
7309;BME280;3695;53.330;9.876;2024-02-26T09:01:08;99741.75;;;11.27;54.56
7309;BME280;3695;53.330;9.876;2024-02-26T09:03:35;99740.00;;;11.20;55.30
7309;BME280;3695;53.330;9.876;2024-02-26T09:06:01;99739.16;;;11.30;55.13
7309;BME280;3695;53.330;9.876;2024-02-26T09:08:28;99745.34;;;11.41;55.11
7309;BME280;3695;53.330;9.876;2024-02-26T09:10:55;99739.25;;;11.49;55.25
7309;BME280;3695;53.330;9.876;2024-02-26T09:13:22;99729.72;;;11.75;54.95
7309;BME280;3695;53.330;9.876;2024-02-26T09:15:49;99741.81;;;11.39;54.86
7309;BME280;3695;53.330;9.876;2024-02-26T09:18:16;99740.13;;;11.52;54.91
7309;BME280;3695;53.330;9.876;2024-02-26T09:20:42;99739.38;;;11.94;54.70
7309;BME280;3695;53.330;9.876;2024-02-26T09:23:09;99745.47;;;11.72;54.58
7309;BME280;3695;53.330;9.876;2024-02-26T09:25:36;99749.91;;;11.74;54.53
7309;BME280;3695;53.330;9.876;2024-02-26T09:28:02;99750.69;;;11.60;54.82
7309;BME280;3695;53.330;9.876;2024-02-26T09:30:31;99760.31;;;11.53;54.82
7309;BME280;3695;53.330;9.876;2024-02-26T09:32:58;99751.53;;;11.53;55.00
7309;BME280;3695;53.330;9.876;2024-02-26T09:35:24;99755.03;;;11.49;55.06
7309;BME280;3695;53.330;9.876;2024-02-26T09:37:52;99756.06;;;11.86;54.95
7309;BME280;3695;53.330;9.876;2024-02-26T09:40:19;99755.97;;;11.66;54.80
7309;BME280;3695;53.330;9.876;2024-02-26T09:42:45;99763.00;;;11.67;55.10
7309;BME280;3695;53.330;9.876;2024-02-26T09:45:18;99762.25;;;12.10;55.02
7309;BME280;3695;53.330;9.876;2024-02-26T09:47:47;99765.78;;;12.24;54.82
7309;BME280;3695;53.330;9.876;2024-02-26T09:50:16;99761.38;;;12.42;54.57
7309;BME280;3695;53.330;9.876;2024-02-26T09:52:43;99766.66;;;12.28;54.24
7309;BME280;3695;53.330;9.876;2024-02-26T09:55:10;99764.03;;;12.71;53.98
7309;BME280;3695;53.330;9.876;2024-02-26T09:57:37;99770.13;;;12.00;54.34
7309;BME280;3695;53.330;9.876;2024-02-26T10:00:05;99773.53;;;11.71;54.23
7309;BME280;3695;53.330;9.876;2024-02-26T10:02:36;99778.91;;;11.97;54.68
7309;BME280;3695;53.330;9.876;2024-02-26T10:05:07;99785.97;;;12.32;54.50
7309;BME280;3695;53.330;9.876;2024-02-26T10:07:37;99787.75;;;12.63;54.30
7309;BME280;3695;53.330;9.876;2024-02-26T10:10:04;99786.88;;;12.79;53.94
7309;BME280;3695;53.330;9.876;2024-02-26T10:12:31;99784.22;;;12.73;53.82
7309;BME280;3695;53.330;9.876;2024-02-26T10:14:58;99791.28;;;12.71;53.83
7309;BME280;3695;53.330;9.876;2024-02-26T10:17:24;99786.00;;;12.70;53.28
7309;BME280;3695;53.330;9.876;2024-02-26T10:19:51;99791.25;;;12.21;54.06
7309;BME280;3695;53.330;9.876;2024-02-26T10:22:23;99792.16;;;12.64;54.10
7309;BME280;3695;53.330;9.876;2024-02-26T10:24:49;99795.66;;;12.69;53.92
7309;BME280;3695;53.330;9.876;2024-02-26T10:27:16;99797.41;;;12.50;54.16
7309;BME280;3695;53.330;9.876;2024-02-26T10:29:42;99800.06;;;12.78;54.18
7309;BME280;3695;53.330;9.876;2024-02-26T10:32:09;99806.22;;;12.40;54.08
7309;BME280;3695;53.330;9.876;2024-02-26T10:34:39;99806.22;;;12.77;54.41
7309;BME280;3695;53.330;9.876;2024-02-26T10:37:06;99810.59;;;12.96;53.90
7309;BME280;3695;53.330;9.876;2024-02-26T10:39:36;99814.09;;;12.78;53.69
7309;BME280;3695;53.330;9.876;2024-02-26T10:42:03;99809.72;;;12.73;54.07
7309;BME280;3695;53.330;9.876;2024-02-26T10:44:34;99811.47;;;12.80;53.94
7309;BME280;3695;53.330;9.876;2024-02-26T10:47:01;99806.19;;;12.90;53.84
7309;BME280;3695;53.330;9.876;2024-02-26T10:49:28;99809.72;;;12.76;53.85
7309;BME280;3695;53.330;9.876;2024-02-26T10:51:56;99811.47;;;12.90;53.58
7309;BME280;3695;53.330;9.876;2024-02-26T10:54:24;99812.34;;;12.80;53.99
7309;BME280;3695;53.330;9.876;2024-02-26T10:56:53;99811.47;;;12.87;53.88
7309;BME280;3695;53.330;9.876;2024-02-26T10:59:22;99815.84;;;12.99;53.43
7309;BME280;3695;53.330;9.876;2024-02-26T11:01:48;99810.56;;;13.29;53.90
7309;BME280;3695;53.330;9.876;2024-02-26T11:04:16;99810.56;;;13.29;54.15
7309;BME280;3695;53.330;9.876;2024-02-26T11:06:43;99812.34;;;13.06;53.92
7309;BME280;3695;53.330;9.876;2024-02-26T11:09:12;99817.63;;;12.68;54.39
7309;BME280;3695;53.330;9.876;2024-02-26T11:11:40;99822.03;;;12.93;54.13
7309;BME280;3695;53.330;9.876;2024-02-26T11:14:09;99819.38;;;13.01;53.63
7309;BME280;3695;53.330;9.876;2024-02-26T11:16:40;99822.00;;;13.10;54.12
7309;BME280;3695;53.330;9.876;2024-02-26T11:19:09;99818.47;;;13.03;54.23
7309;BME280;3695;53.330;9.876;2024-02-26T11:21:36;99822.03;;;13.19;54.15
7309;BME280;3695;53.330;9.876;2024-02-26T11:24:07;99822.66;;;13.90;53.31
7309;BME280;3695;53.330;9.876;2024-02-26T11:26:36;99827.88;;;14.00;53.09
7309;BME280;3695;53.330;9.876;2024-02-26T11:29:05;99827.28;;;13.01;54.90
7309;BME280;3695;53.330;9.876;2024-02-26T11:31:37;99826.41;;;12.75;55.22
7309;BME280;3695;53.330;9.876;2024-02-26T11:34:04;99827.25;;;12.42;55.62
7309;BME280;3695;53.330;9.876;2024-02-26T11:36:32;99828.16;;;12.91;55.72
7309;BME280;3695;53.330;9.876;2024-02-26T11:38:59;99827.28;;;13.07;55.13
7309;BME280;3695;53.330;9.876;2024-02-26T11:41:26;99830.78;;;13.11;54.84
7309;BME280;3695;53.330;9.876;2024-02-26T11:43:53;99832.56;;;12.90;54.99
7309;BME280;3695;53.330;9.876;2024-02-26T11:46:26;99829.91;;;13.28;55.22
7309;BME280;3695;53.330;9.876;2024-02-26T11:48:56;99823.75;;;13.31;55.12
7309;BME280;3695;53.330;9.876;2024-02-26T11:51:25;99838.72;;;13.04;55.01
7309;BME280;3695;53.330;9.876;2024-02-26T11:53:53;99829.84;;;13.51;54.76
7309;BME280;3695;53.330;9.876;2024-02-26T11:56:23;99832.50;;;13.54;54.65
7309;BME280;3695;53.330;9.876;2024-02-26T11:59:02;99835.13;;;13.60;54.76
7309;BME280;3695;53.330;9.876;2024-02-26T12:01:46;99828.16;;;13.36;55.00
7309;BME280;3695;53.330;9.876;2024-02-26T12:04:17;99835.97;;;13.65;54.48
7309;BME280;3695;53.330;9.876;2024-02-26T12:06:46;99843.03;;;13.57;54.18
7309;BME280;3695;53.330;9.876;2024-02-26T12:09:13;99848.16;;;13.94;53.81
7309;BME280;3695;53.330;9.876;2024-02-26T12:11:40;99850.75;;;14.09;54.11
7309;BME280;3695;53.330;9.876;2024-02-26T12:14:09;99854.50;;;13.39;54.34
7309;BME280;3695;53.330;9.876;2024-02-26T12:16:36;99852.53;;;13.99;54.62
7309;BME280;3695;53.330;9.876;2024-02-26T12:19:05;99857.03;;;13.83;54.09
7309;BME280;3695;53.330;9.876;2024-02-26T12:21:34;99863.22;;;13.79;54.26
7309;BME280;3695;53.330;9.876;2024-02-26T12:24:10;99858.72;;;14.03;53.83
7309;BME280;3695;53.330;9.876;2024-02-26T12:26:36;99867.50;;;14.08;53.93
7309;BME280;3695;53.330;9.876;2024-02-26T12:29:03;99867.50;;;13.99;53.86
7309;BME280;3695;53.330;9.876;2024-02-26T12:31:30;99869.09;;;14.42;53.82
7309;BME280;3695;53.330;9.876;2024-02-26T12:33:57;99878.09;;;13.99;53.25
7309;BME280;3695;53.330;9.876;2024-02-26T12:36:24;99880.59;;;14.31;53.60
7309;BME280;3695;53.330;9.876;2024-02-26T12:38:53;99863.81;;;14.36;53.42
7309;BME280;3695;53.330;9.876;2024-02-26T12:41:21;99867.25;;;14.56;53.26
7309;BME280;3695;53.330;9.876;2024-02-26T12:43:48;99876.94;;;14.54;52.56
7309;BME280;3695;53.330;9.876;2024-02-26T12:46:15;99882.34;;;14.38;52.58
7309;BME280;3695;53.330;9.876;2024-02-26T12:48:42;99874.34;;;14.47;52.82
7309;BME280;3695;53.330;9.876;2024-02-26T12:51:10;99883.00;;;14.75;52.85
7309;BME280;3695;53.330;9.876;2024-02-26T12:53:37;99885.75;;;14.58;52.30
7309;BME280;3695;53.330;9.876;2024-02-26T12:56:06;99892.91;;;14.38;52.53
7309;BME280;3695;53.330;9.876;2024-02-26T12:58:34;99884.94;;;14.45;52.27
7309;BME280;3695;53.330;9.876;2024-02-26T13:01:03;99895.53;;;14.36;52.09
7309;BME280;3695;53.330;9.876;2024-02-26T13:03:30;99902.44;;;14.66;51.88
7309;BME280;3695;53.330;9.876;2024-02-26T13:05:58;99913.88;;;14.68;51.87
7309;BME280;3695;53.330;9.876;2024-02-26T13:08:24;99909.34;;;14.84;51.88
7309;BME280;3695;53.330;9.876;2024-02-26T13:10:51;99906.63;;;14.97;51.55
7309;BME280;3695;53.330;9.876;2024-02-26T13:13:19;99914.34;;;15.23;51.56
7309;BME280;3695;53.330;9.876;2024-02-26T13:15:46;99922.34;;;15.14;51.22
7309;BME280;3695;53.330;9.876;2024-02-26T13:18:13;99915.28;;;15.16;51.85
7309;BME280;3695;53.330;9.876;2024-02-26T13:20:41;99928.47;;;15.21;51.56
7309;BME280;3695;53.330;9.876;2024-02-26T13:23:11;99929.53;;;15.00;51.46
7309;BME280;3695;53.330;9.876;2024-02-26T13:25:38;99921.75;;;14.82;51.12
7309;BME280;3695;53.330;9.876;2024-02-26T13:28:07;99923.34;;;15.01;50.77